East Orange, Vermont
Current Conditions -  °F | °C
As of 9:51 PM on Thursday 18 Dec 2014 (Local Time) from KMPV Reporting Station
Overcast Overcast  
Wind Chill: 14°   Ceiling: 1600
Heat Index: 26°   Visibility: 8mi
Dew Point: 23°   Wind: 14mph
Humidity: 88%   Direction: 310°NW
Pressure: 29.89"   Gusts: 21mph
Location:  44.1344°N, 72.2538°W
Report Text: KMPV 190251Z AUTO 31012G18KT 8SM OVC016 M03/M05 A2989 RMK AO2 SLP138 60000 I3001 T10331050 51000
Loading
Personal Weather Stations






























Interactive Weather Map New forecast layout! Learn more

10-Day Weather Forecast

Advertisements
Track Severe Weather on mobile